EJU66 EDDL-EGKK
Flight info
| Callsign | EJU66 |
|---|---|
| Flight time | N/A |
| Altitude | 32000 |
| Route | MODRU2T/23L MODRU Z717 MAS UM617 SOGRI DCT DENUT L610 TEBRA |
| Aircraft | A20N/M-SDE2E3FGHIJ1RWXYZ/LB1 |
Departure
| Time | N/A |
|---|---|
| Airport | Düsseldorf Airport (EDDL) |
Arrival
| Time | 2026-05-05 11:49 |
|---|---|
| Airport | London Gatwick Airport (EGKK) |
| Time | Latitude | Longitude | Altitude | Speed | Heading |
|---|---|---|---|---|---|
| 2026-05-05 11:03 | 51.28135 | 5.42241 | 25261 ft | 406 kts | 268° |
| 2026-05-05 11:03 | 51.28052 | 5.37724 | 25628 ft | 409 kts | 268° |
| 2026-05-05 11:04 | 51.27967 | 5.33167 | 25992 ft | 411 kts | 268° |
| 2026-05-05 11:04 | 51.27879 | 5.28595 | 26341 ft | 413 kts | 268° |
| 2026-05-05 11:04 | 51.27791 | 5.24060 | 26674 ft | 415 kts | 268° |
| 2026-05-05 11:04 | 51.27700 | 5.19439 | 27003 ft | 418 kts | 268° |
| 2026-05-05 11:05 | 51.27607 | 5.14786 | 27330 ft | 420 kts | 268° |
| 2026-05-05 11:05 | 51.27512 | 5.10111 | 27650 ft | 422 kts | 268° |
| 2026-05-05 11:05 | 51.27414 | 5.05430 | 27963 ft | 424 kts | 268° |
| 2026-05-05 11:05 | 51.27314 | 5.00706 | 28268 ft | 426 kts | 268° |
| 2026-05-05 11:06 | 51.27214 | 4.95972 | 28561 ft | 428 kts | 268° |
| 2026-05-05 11:06 | 51.27110 | 4.91215 | 28847 ft | 430 kts | 268° |
| 2026-05-05 11:06 | 51.27001 | 4.86428 | 29129 ft | 432 kts | 268° |
| 2026-05-05 11:06 | 51.26890 | 4.81639 | 29397 ft | 433 kts | 268° |
| 2026-05-05 11:07 | 51.26775 | 4.76818 | 29658 ft | 435 kts | 268° |
| 2026-05-05 11:07 | 51.26661 | 4.72049 | 29909 ft | 437 kts | 268° |
| 2026-05-05 11:07 | 51.26542 | 4.67185 | 30156 ft | 439 kts | 268° |
| 2026-05-05 11:07 | 51.26418 | 4.62313 | 30401 ft | 440 kts | 268° |
| 2026-05-05 11:08 | 51.26295 | 4.57420 | 30626 ft | 442 kts | 268° |
| 2026-05-05 11:08 | 51.26171 | 4.52513 | 30852 ft | 443 kts | 268° |
| 2026-05-05 11:08 | 51.26043 | 4.47585 | 31079 ft | 445 kts | 268° |
| 2026-05-05 11:08 | 51.25913 | 4.42635 | 31274 ft | 446 kts | 268° |
| 2026-05-05 11:09 | 51.25781 | 4.37685 | 31537 ft | 446 kts | 268° |
| 2026-05-05 11:09 | 51.25648 | 4.32744 | 31834 ft | 445 kts | 268° |
| 2026-05-05 11:09 | 51.25515 | 4.27822 | 31983 ft | 443 kts | 267° |
| 2026-05-05 11:09 | 51.25380 | 4.22993 | 32011 ft | 426 kts | 267° |
| 2026-05-05 11:10 | 51.25248 | 4.18390 | 32010 ft | 419 kts | 267° |
| 2026-05-05 11:10 | 51.24973 | 4.09090 | 32009 ft | 419 kts | 267° |
| 2026-05-05 11:11 | 51.24692 | 3.99798 | 32009 ft | 419 kts | 267° |
| 2026-05-05 11:11 | 51.24404 | 3.90499 | 32009 ft | 419 kts | 267° |
| 2026-05-05 11:12 | 51.24116 | 3.81269 | 32010 ft | 419 kts | 267° |
| 2026-05-05 11:12 | 51.23817 | 3.71978 | 32013 ft | 419 kts | 267° |
| 2026-05-05 11:13 | 51.24014 | 3.62716 | 32011 ft | 419 kts | 281° |
| 2026-05-05 11:13 | 51.25243 | 3.53620 | 32012 ft | 419 kts | 282° |
| 2026-05-05 11:14 | 51.26447 | 3.44503 | 32015 ft | 419 kts | 282° |
| 2026-05-05 11:14 | 51.27635 | 3.35394 | 32017 ft | 419 kts | 281° |
| 2026-05-05 11:15 | 51.28805 | 3.26280 | 32018 ft | 419 kts | 281° |
| 2026-05-05 11:15 | 51.29973 | 3.17160 | 32018 ft | 419 kts | 281° |
| 2026-05-05 11:16 | 51.31133 | 3.08029 | 32019 ft | 419 kts | 281° |
| 2026-05-05 11:16 | 51.32281 | 2.98905 | 31962 ft | 418 kts | 281° |
| 2026-05-05 11:16 | 51.32841 | 2.94421 | 31449 ft | 415 kts | 281° |
| 2026-05-05 11:17 | 51.33402 | 2.89920 | 30951 ft | 411 kts | 281° |
| 2026-05-05 11:17 | 51.33955 | 2.85463 | 30478 ft | 406 kts | 281° |
| 2026-05-05 11:17 | 51.34500 | 2.81054 | 30015 ft | 402 kts | 281° |
| 2026-05-05 11:17 | 51.35042 | 2.76690 | 29543 ft | 398 kts | 281° |
| 2026-05-05 11:18 | 51.35581 | 2.72372 | 29098 ft | 394 kts | 281° |
| 2026-05-05 11:18 | 51.36113 | 2.68102 | 28658 ft | 389 kts | 281° |
| 2026-05-05 11:18 | 51.36637 | 2.63876 | 28226 ft | 385 kts | 281° |
| 2026-05-05 11:18 | 51.37191 | 2.59355 | 27761 ft | 381 kts | 281° |
| 2026-05-05 11:19 | 51.37653 | 2.55546 | 27361 ft | 378 kts | 281° |
| 2026-05-05 11:19 | 51.38150 | 2.51436 | 26935 ft | 374 kts | 281° |
| 2026-05-05 11:19 | 51.38644 | 2.47369 | 26499 ft | 371 kts | 281° |
| 2026-05-05 11:19 | 51.39136 | 2.43337 | 26066 ft | 367 kts | 281° |
| 2026-05-05 11:20 | 51.39623 | 2.39354 | 25618 ft | 364 kts | 281° |
| 2026-05-05 11:20 | 51.40100 | 2.35389 | 25183 ft | 360 kts | 281° |
| 2026-05-05 11:20 | 51.40570 | 2.31463 | 24739 ft | 357 kts | 281° |
| 2026-05-05 11:20 | 51.41038 | 2.27530 | 24280 ft | 370 kts | 281° |
| 2026-05-05 11:21 | 51.41538 | 2.23332 | 23779 ft | 391 kts | 281° |
| 2026-05-05 11:21 | 51.42050 | 2.19053 | 23262 ft | 389 kts | 281° |
| 2026-05-05 11:21 | 51.42558 | 2.14808 | 22782 ft | 386 kts | 281° |
| 2026-05-05 11:21 | 51.43053 | 2.10662 | 22300 ft | 383 kts | 281° |
| 2026-05-05 11:22 | 51.43547 | 2.06483 | 21813 ft | 380 kts | 281° |
| 2026-05-05 11:22 | 51.44034 | 2.02344 | 21343 ft | 377 kts | 280° |
| 2026-05-05 11:22 | 51.44517 | 1.98227 | 20868 ft | 374 kts | 281° |
| 2026-05-05 11:22 | 51.45011 | 1.94143 | 20404 ft | 372 kts | 281° |
| 2026-05-05 11:23 | 51.45518 | 1.90092 | 19941 ft | 369 kts | 281° |
| 2026-05-05 11:23 | 51.46027 | 1.86076 | 19484 ft | 366 kts | 281° |
| 2026-05-05 11:23 | 51.46515 | 1.82080 | 19025 ft | 364 kts | 281° |
| 2026-05-05 11:23 | 51.46980 | 1.78105 | 18579 ft | 361 kts | 280° |
| 2026-05-05 11:24 | 51.47429 | 1.74156 | 18135 ft | 359 kts | 280° |
| 2026-05-05 11:24 | 51.47870 | 1.70227 | 17693 ft | 356 kts | 280° |
| 2026-05-05 11:24 | 51.48311 | 1.66331 | 17258 ft | 354 kts | 280° |
| 2026-05-05 11:24 | 51.48582 | 1.62425 | 16829 ft | 352 kts | 269° |
| 2026-05-05 11:25 | 51.48258 | 1.58557 | 16408 ft | 350 kts | 254° |
| 2026-05-05 11:25 | 51.47455 | 1.54895 | 15988 ft | 348 kts | 250° |
| 2026-05-05 11:25 | 51.46614 | 1.51267 | 15573 ft | 345 kts | 250° |
| 2026-05-05 11:25 | 51.45783 | 1.47666 | 15159 ft | 343 kts | 250° |
| 2026-05-05 11:26 | 51.44958 | 1.44088 | 14748 ft | 341 kts | 250° |
| 2026-05-05 11:26 | 51.44132 | 1.40588 | 14340 ft | 339 kts | 246° |
| 2026-05-05 11:26 | 51.42918 | 1.37359 | 14065 ft | 338 kts | 236° |
| 2026-05-05 11:26 | 51.41579 | 1.34253 | 13996 ft | 338 kts | 236° |
| 2026-05-05 11:27 | 51.40251 | 1.31137 | 14011 ft | 339 kts | 236° |
| 2026-05-05 11:27 | 51.38929 | 1.28021 | 14011 ft | 339 kts | 236° |
| 2026-05-05 11:27 | 51.37604 | 1.24897 | 14014 ft | 339 kts | 236° |
| 2026-05-05 11:27 | 51.36410 | 1.21654 | 14009 ft | 338 kts | 245° |
| 2026-05-05 11:28 | 51.35441 | 1.18232 | 14009 ft | 338 kts | 246° |
| 2026-05-05 11:28 | 51.34495 | 1.14786 | 14007 ft | 338 kts | 246° |
| 2026-05-05 11:28 | 51.33551 | 1.11342 | 14009 ft | 338 kts | 246° |
| 2026-05-05 11:28 | 51.32605 | 1.07891 | 14011 ft | 338 kts | 246° |
| 2026-05-05 11:29 | 51.31661 | 1.04449 | 13952 ft | 338 kts | 246° |
| 2026-05-05 11:29 | 51.30721 | 1.01025 | 13597 ft | 335 kts | 246° |
| 2026-05-05 11:29 | 51.29787 | 0.97627 | 13148 ft | 333 kts | 246° |
| 2026-05-05 11:29 | 51.28872 | 0.94300 | 12700 ft | 331 kts | 246° |
| 2026-05-05 11:30 | 51.27950 | 0.90948 | 12247 ft | 328 kts | 246° |
| 2026-05-05 11:30 | 51.27032 | 0.87617 | 12005 ft | 328 kts | 246° |
| 2026-05-05 11:30 | 51.26111 | 0.84277 | 12005 ft | 329 kts | 246° |
| 2026-05-05 11:30 | 51.24911 | 0.81192 | 12010 ft | 329 kts | 230° |
| 2026-05-05 11:31 | 51.23409 | 0.78425 | 12009 ft | 330 kts | 229° |
| 2026-05-05 11:31 | 51.21903 | 0.75672 | 12004 ft | 329 kts | 229° |
| 2026-05-05 11:31 | 51.20397 | 0.72931 | 11739 ft | 327 kts | 229° |
| 2026-05-05 11:31 | 51.18903 | 0.70216 | 11276 ft | 325 kts | 229° |
| 2026-05-05 11:32 | 51.17420 | 0.67525 | 10878 ft | 320 kts | 229° |
| 2026-05-05 11:32 | 51.15982 | 0.64910 | 10749 ft | 307 kts | 229° |
| 2026-05-05 11:33 | 51.10890 | 0.55648 | 9742 ft | 284 kts | 229° |
| 2026-05-05 11:33 | 51.09593 | 0.53289 | 9357 ft | 282 kts | 229° |
| 2026-05-05 11:33 | 51.08306 | 0.50948 | 8969 ft | 280 kts | 229° |
| 2026-05-05 11:34 | 51.07026 | 0.48626 | 8568 ft | 279 kts | 229° |
| 2026-05-05 11:34 | 51.05759 | 0.46339 | 8175 ft | 277 kts | 229° |
| 2026-05-05 11:34 | 51.04489 | 0.44044 | 8000 ft | 277 kts | 229° |
| 2026-05-05 11:34 | 51.03215 | 0.41743 | 8006 ft | 277 kts | 229° |
| 2026-05-05 11:35 | 51.01938 | 0.39440 | 7983 ft | 277 kts | 229° |
| 2026-05-05 11:35 | 51.00669 | 0.37153 | 7749 ft | 275 kts | 229° |
| 2026-05-05 11:35 | 50.99406 | 0.34885 | 7348 ft | 274 kts | 229° |
| 2026-05-05 11:35 | 50.98150 | 0.32629 | 6931 ft | 272 kts | 229° |
| 2026-05-05 11:36 | 50.96899 | 0.30384 | 6519 ft | 271 kts | 229° |
| 2026-05-05 11:36 | 50.95754 | 0.28043 | 6122 ft | 267 kts | 245° |
| 2026-05-05 11:36 | 50.95357 | 0.25199 | 6034 ft | 268 kts | 271° |
| 2026-05-05 11:36 | 50.95484 | 0.22294 | 6041 ft | 268 kts | 276° |
| 2026-05-05 11:37 | 50.95687 | 0.19352 | 6043 ft | 268 kts | 276° |
| 2026-05-05 11:37 | 50.95899 | 0.16416 | 6042 ft | 268 kts | 276° |
| 2026-05-05 11:37 | 50.96111 | 0.13478 | 5879 ft | 267 kts | 276° |
| 2026-05-05 11:37 | 50.96321 | 0.10568 | 5467 ft | 265 kts | 276° |
| 2026-05-05 11:38 | 50.96529 | 0.07676 | 5095 ft | 262 kts | 276° |
| 2026-05-05 11:38 | 50.96736 | 0.04794 | 5036 ft | 264 kts | 276° |
| 2026-05-05 11:38 | 50.96943 | 0.01898 | 5044 ft | 264 kts | 276° |
| 2026-05-05 11:38 | 50.97149 | -0.00997 | 5037 ft | 264 kts | 276° |
| 2026-05-05 11:39 | 50.97357 | -0.03898 | 5045 ft | 264 kts | 276° |
| 2026-05-05 11:39 | 50.97564 | -0.06796 | 4975 ft | 264 kts | 276° |
| 2026-05-05 11:39 | 50.97766 | -0.09630 | 4849 ft | 253 kts | 276° |
| 2026-05-05 11:39 | 50.97959 | -0.12329 | 4724 ft | 240 kts | 276° |
| 2026-05-05 11:40 | 50.98142 | -0.14902 | 4529 ft | 231 kts | 276° |
| 2026-05-05 11:40 | 50.98321 | -0.17417 | 4195 ft | 229 kts | 276° |
| 2026-05-05 11:40 | 50.98498 | -0.19913 | 3993 ft | 228 kts | 276° |
| 2026-05-05 11:40 | 50.98673 | -0.22377 | 3727 ft | 227 kts | 276° |
| 2026-05-05 11:41 | 50.98849 | -0.24862 | 3368 ft | 226 kts | 276° |
| 2026-05-05 11:41 | 50.99026 | -0.27334 | 3080 ft | 224 kts | 276° |
| 2026-05-05 11:41 | 50.99201 | -0.29806 | 3040 ft | 225 kts | 276° |
| 2026-05-05 11:41 | 50.99375 | -0.32274 | 3046 ft | 226 kts | 276° |
| 2026-05-05 11:42 | 50.99548 | -0.34748 | 3043 ft | 225 kts | 276° |
| 2026-05-05 11:42 | 50.99722 | -0.37222 | 3042 ft | 225 kts | 276° |
| 2026-05-05 11:42 | 51.00100 | -0.39619 | 3036 ft | 223 kts | 300° |
| 2026-05-05 11:42 | 51.01211 | -0.41417 | 3042 ft | 231 kts | 326° |
| 2026-05-05 11:43 | 51.02546 | -0.42650 | 3040 ft | 214 kts | 330° |
| 2026-05-05 11:43 | 51.03811 | -0.43718 | 3059 ft | 196 kts | 331° |
| 2026-05-05 11:43 | 51.04977 | -0.44684 | 3050 ft | 186 kts | 331° |
| 2026-05-05 11:43 | 51.06123 | -0.45632 | 3045 ft | 186 kts | 331° |
| 2026-05-05 11:44 | 51.07271 | -0.46581 | 3008 ft | 186 kts | 331° |
| 2026-05-05 11:44 | 51.08326 | -0.47223 | 2778 ft | 186 kts | 353° |
| 2026-05-05 11:44 | 51.09567 | -0.46745 | 2571 ft | 189 kts | 30° |
| 2026-05-05 11:44 | 51.10584 | -0.45419 | 2534 ft | 191 kts | 47° |
| 2026-05-05 11:45 | 51.11301 | -0.43656 | 2528 ft | 186 kts | 66° |
| 2026-05-05 11:45 | 51.11639 | -0.41790 | 2555 ft | 171 kts | 77° |
| 2026-05-05 11:45 | 51.11896 | -0.39968 | 2526 ft | 171 kts | 77° |
| 2026-05-05 11:45 | 51.12156 | -0.38123 | 2363 ft | 171 kts | 77° |
| 2026-05-05 11:46 | 51.12415 | -0.36281 | 2157 ft | 170 kts | 77° |
| 2026-05-05 11:46 | 51.12669 | -0.34463 | 1942 ft | 162 kts | 77° |
| 2026-05-05 11:46 | 51.12903 | -0.32788 | 1738 ft | 149 kts | 77° |
| 2026-05-05 11:46 | 51.13125 | -0.31198 | 1549 ft | 146 kts | 77° |
| 2026-05-05 11:47 | 51.13345 | -0.29624 | 1360 ft | 145 kts | 77° |
| 2026-05-05 11:47 | 51.13563 | -0.28058 | 1157 ft | 144 kts | 75° |
| 2026-05-05 11:47 | 51.13778 | -0.26492 | 954 ft | 145 kts | 77° |
| 2026-05-05 11:47 | 51.13984 | -0.24934 | 734 ft | 143 kts | 77° |
| 2026-05-05 11:48 | 51.14428 | -0.21852 | 368 ft | 142 kts | 78° |
| 2026-05-05 11:48 | 51.14630 | -0.20333 | 214 ft | 141 kts | 77° |
| 2026-05-05 11:48 | 51.14823 | -0.18948 | 209 ft | 114 kts | 78° |
| 2026-05-05 11:49 | 51.14964 | -0.17934 | 207 ft | 71 kts | 79° |
| 2026-05-05 11:49 | 51.15052 | -0.17292 | 205 ft | 54 kts | 79° |
| 2026-05-05 11:49 | 51.15121 | -0.16786 | 205 ft | 33 kts | 79° |
| 2026-05-05 11:49 | 51.15178 | -0.16645 | 215 ft | 12 kts | 13° |
| 2026-05-05 11:50 | 51.15219 | -0.16641 | 208 ft | 2 kts | 359° |
| 2026-05-05 11:50 | 51.15222 | -0.16641 | 208 ft | 0 kts | 359° |
| 2026-05-05 11:53 | 51.15258 | -0.16652 | 209 ft | 11 kts | 349° |
| 2026-05-05 11:53 | 51.15356 | -0.16691 | 207 ft | 16 kts | 344° |
| 2026-05-05 11:53 | 51.15462 | -0.16757 | 211 ft | 17 kts | 334° |
| 2026-05-05 11:53 | 51.15514 | -0.16777 | 205 ft | 0 kts | 349° |